• Join FlightAware (Why Join?)
  • Login
  • US Flag 
07:07AM EDT


 

Airport Tracker/Info


-or-


 

Live Flight TrackerFlight Track Log ✈ SWA2490 ✈ 15-Feb-2014 ✈ KMDW - KMCI

Flight Track Log - Related Links

Times and Time Zones

All times are in EST time to prevent confusion due to time zone crossing. See the SWA2490 flight status page for this flight to view local times or setup timezone preferences in your user account.

Time Position Orientation Groundspeed Altitude Reporting Facility
EST Latitude Longitude Course Direction KTS MPH feet Rate Location/Type
05:21PM 41.7667 -87.8167 270° West 180 207 3,000  Level Chicago TRACON
05:22PM 41.7667 -87.8833 270° West 184 212 3,100 420 Climbing Chicago TRACON
05:23PM 41.7833 -87.9500 289° West 189 217 3,900 900 Climbing Chicago TRACON
05:24PM 41.7836 -87.9756 271° West 185 213 4,400 1,500 Climbing Chicago Center
05:25PM 41.8006 -88.0892 281° West 240 276 6,200 2,160 Climbing Chicago Center
05:26PM 41.8147 -88.1844 281° West 263 303 8,900 1,740 Climbing Chicago Center
05:27PM 41.8272 -88.2839 280° West 270 311 9,800 1,980 Climbing Chicago Center
05:28PM 41.8344 -88.3828 276° West 273 314 13,000 1,560 Climbing Chicago Center
05:29PM 41.8250 -88.4783 262° West 261 300 13,000 600 Level Chicago Center
05:30PM 41.8164 -88.5758 263° West 265 305 14,300 960 Climbing Chicago Center
05:31PM 41.8081 -88.6761 264° West 271 312 15,000 780 Climbing Chicago Center
05:32PM 41.7967 -88.7978 263° West 275 316 16,000 1,680 Climbing Chicago Center
05:33PM 41.7844 -88.9025 261° West 284 327 18,500 2,820 Climbing Chicago Center
05:34PM 41.7697 -89.0097 260° West 294 338 21,900 2,640 Climbing Chicago Center
05:35PM 41.7550 -89.1267 260° West 315 362 24,000 2,040 Climbing Chicago Center
05:36PM 41.7222 -89.2494 250° West 343 395 26,100 2,280 Climbing Chicago Center
05:37PM 41.6747 -89.3767 243° Southwest 368 423 28,700 2,640 Climbing Chicago Center
05:38PM 41.6261 -89.5058 243° Southwest 384 442 31,600 2,520 Climbing Chicago Center
05:39PM 41.5783 -89.6328 243° Southwest 389 448 33,900 1,140 Climbing Chicago Center
05:40PM 41.5189 -89.7869 243° Southwest 391 450 34,000  Climbing Chicago Center
05:41PM 41.4658 -89.9147 241° Southwest 394 453 34,000  Level Chicago Center
05:42PM 41.4119 -90.0453 241° Southwest 399 459 34,000  Level Chicago Center
05:43PM 41.3547 -90.1797 240° Southwest 411 473 34,000  Level Chicago Center
05:44PM 41.3003 -90.3106 241° Southwest 410 472 34,000  Level Chicago Center
05:45PM 41.2431 -90.4458 241° Southwest 417 480 34,000  Level Chicago Center
05:46PM 41.1878 -90.5772 241° Southwest 412 474 34,000  Level Chicago Center
05:47PM 41.1317 -90.7083 240° Southwest 410 472 34,000  Level Chicago Center
05:48PM 41.0653 -90.8631 240° Southwest 405 466 34,000  Level Chicago Center
05:49PM 41.0111 -90.9919 241° Southwest 404 465 34,000  Level Chicago Center
05:50PM 40.9556 -91.1200 240° Southwest 402 463 34,000  Level Chicago Center
05:51PM 40.8997 -91.2497 240° Southwest 405 466 34,000  Level Chicago Center
05:52PM 40.8469 -91.3722 240° Southwest 405 466 34,000  Level Chicago Center
05:53PM 40.7792 -91.5258 240° Southwest 407 468 34,000  Level Chicago Center
05:54PM 40.7089 -91.6444 232° Southwest 412 474 34,000  Level Chicago Center
05:55PM 40.6378 -91.7614 231° Southwest 411 473 34,000  Level Chicago Center
05:56PM 40.5947 -91.8303 231° Southwest 410 472 34,000  Level Kansas City Center
05:57PM 40.5253 -91.9469 232° Southwest 408 470 34,000  Level Kansas City Center
05:58PM 40.4550 -92.0644 232° Southwest 409 471 34,000 -300 Level Kansas City Center
05:59PM 40.3850 -92.1814 232° Southwest 409 471 33,500 -780 Descending Kansas City Center
06:00PM 40.3178 -92.2931 232° Southwest 397 457 32,400 -1,140 Descending Kansas City Center
06:01PM 40.2486 -92.4042 231° Southwest 377 434 31,300 -1,080 Descending Kansas City Center
06:02PM 40.1750 -92.5286 232° Southwest 384 442 30,300 -780 Descending Kansas City Center
06:03PM 40.1161 -92.6356 234° Southwest 380 437 29,700 -900 Descending Kansas City Center
06:04PM 40.0703 -92.7608 244° Southwest 348 400 28,500 -1,140 Descending Kansas City Center
06:05PM 40.0267 -92.8711 243° Southwest 344 396 27,500 -1,020 Descending Kansas City Center
06:06PM 39.9850 -92.9797 243° Southwest 338 389 26,500 -1,020 Descending Kansas City Center
06:07PM 39.9425 -93.0869 243° Southwest 336 387 25,500 -1,020 Descending Kansas City Center
06:08PM 39.8992 -93.1947 242° Southwest 336 387 24,500 -1,020 Descending Kansas City Center
06:09PM 39.8578 -93.3008 243° Southwest 333 383 23,500 -1,020 Descending Kansas City Center
06:10PM 39.8178 -93.4058 244° Southwest 328 377 22,400 -1,800 Descending Kansas City Center
06:12PM 39.7711 -93.5258 243° Southwest 318 366 19,900 -2,340 Descending Kansas City Center
06:13PM 39.7339 -93.6192 243° Southwest 297 342 17,800 -2,040 Descending Kansas City Center
06:14PM 39.6989 -93.7097 243° Southwest 283 326 15,700 -1,860 Descending Kansas City Center
06:15PM 39.6592 -93.8000 240° Southwest 272 313 13,900 -1,380 Descending Kansas City Center
06:16PM 39.6339 -93.8975 251° West 297 342 13,000 -1,020 Descending Kansas City Center
06:17PM 39.6017 -94.0083 249° West 295 339 11,900 -1,260 Descending Kansas City Center
06:18PM 39.5739 -94.1047 250° West 297 342 10,500 -1,140 Descending Kansas City Center
06:19PM 39.5450 -94.2025 249° West 258 297 9,600 -1,080 Descending Kansas City Center
06:20PM 39.5233 -94.2817 250° West 245 282 8,300 -1,320 Descending Kansas City Center
06:21PM 39.5011 -94.3586 250° West 239 275 7,000 -1,380 Descending Kansas City Center
06:22PM 39.4742 -94.4492 249° West 242 278 5,600 -1,020 Descending Kansas City Center
06:23PM 39.4536 -94.5197 249° West 221 254 5,000 -900 Descending Kansas City Center
06:24PM 39.4328 -94.5908 249° West 191 220 3,800 -1,140 Descending Kansas City Center
06:25PM 39.4153 -94.6506 249° West 186 214 2,700 -660 Descending Kansas City Center
06:26PM 39.3956 -94.7008 243° Southwest 168 193 2,500 -540 Descending Kansas City Center
06:27PM 39.3492 -94.7128 191° South 149 171 1,600 -720 Descending Kansas City Center
06:28PM 39.3178 -94.7217 192° South 120 138 1,100 -540 Descending Kansas City Center
06:30PM 39.2976 -94.7139 225° Southwest  Level Estimated